createdAt,value
2023-06-17T00:12:15.930Z,70.05
2023-06-17T00:27:18.800Z,70.27
2023-06-17T00:42:21.568Z,70.32
2023-06-17T00:57:24.169Z,70.41
2023-06-17T01:12:29.682Z,70.56
2023-06-17T01:27:34.213Z,70.84
2023-06-17T01:42:46.101Z,70.97
2023-06-17T01:57:48.741Z,71.05
2023-06-17T02:12:51.429Z,71.33
2023-06-17T02:27:54.845Z,71.31
2023-06-17T02:42:57.644Z,71.75
2023-06-17T02:58:01.392Z,71.90
2023-06-17T03:13:04.135Z,72.92
2023-06-17T03:28:07.012Z,73.38
2023-06-17T03:43:09.537Z,74.33
2023-06-17T03:58:15.395Z,75.75
2023-06-17T04:13:32.451Z,75.64
2023-06-17T04:28:49.608Z,74.66
2023-06-17T04:43:54.129Z,73.49
2023-06-17T04:58:57.058Z,73.19
2023-06-17T05:13:59.760Z,73.10
2023-06-17T05:29:02.963Z,72.91
2023-06-17T05:44:05.754Z,72.15
2023-06-17T05:59:08.871Z,71.24
2023-06-17T06:14:11.682Z,70.35
2023-06-17T06:29:15.013Z,68.76
2023-06-17T06:44:18.060Z,67.10
2023-06-17T06:59:21.117Z,65.57
2023-06-17T07:14:38.279Z,63.56
2023-06-17T07:29:41.466Z,62.41
2023-06-17T07:44:45.789Z,61.23
2023-06-17T07:59:48.758Z,59.65
2023-06-17T08:14:52.479Z,57.85
2023-06-17T08:29:55.282Z,56.27
2023-06-17T08:45:00.976Z,54.70
2023-06-17T09:00:19.522Z,53.08
2023-06-17T09:15:22.956Z,51.99
2023-06-17T09:30:25.982Z,51.27
2023-06-17T09:50:05.126Z,50.74
2023-06-17T10:05:11.616Z,48.69
2023-06-17T10:20:18.241Z,48.59
2023-06-17T10:35:21.217Z,47.77
2023-06-17T10:50:24.250Z,46.93
2023-06-17T11:05:34.479Z,46.66
2023-06-17T11:20:37.478Z,45.18
2023-06-17T11:35:43.250Z,44.04
2023-06-17T11:50:50.734Z,44.41
2023-06-17T12:05:54.967Z,44.50
2023-06-17T12:20:58.064Z,45.44
2023-06-17T12:36:01.136Z,44.15
2023-06-17T12:51:04.858Z,44.57
2023-06-17T13:06:09.369Z,43.97
2023-06-17T13:21:12.551Z,43.39
2023-06-17T13:36:15.687Z,42.72
2023-06-17T13:51:18.682Z,42.37
2023-06-17T14:06:21.888Z,42.17
2023-06-17T14:21:31.689Z,42.48
2023-06-17T14:36:35.692Z,45.20
2023-06-17T14:51:38.693Z,49.70
2023-06-17T15:06:42.360Z,52.10
2023-06-17T15:21:47.914Z,53.96
2023-06-17T15:36:51.969Z,55.44
2023-06-17T15:51:54.852Z,56.35
2023-06-17T16:06:58.277Z,56.84
2023-06-17T16:22:04.556Z,57.15
2023-06-17T16:37:07.183Z,56.67
2023-06-17T16:52:10.090Z,56.00
2023-06-17T17:07:13.282Z,55.97
2023-06-17T17:22:31.061Z,55.69
2023-06-17T17:37:37.022Z,55.93
2023-06-17T17:52:40.198Z,56.58
2023-06-17T18:07:45.557Z,57.65
2023-06-17T18:22:51.632Z,58.06
2023-06-17T18:38:09.604Z,58.35
2023-06-17T18:53:13.178Z,58.62
2023-06-17T19:08:17.850Z,58.98
2023-06-17T19:23:26.395Z,59.31
2023-06-17T19:38:44.273Z,60.41
2023-06-17T19:53:46.744Z,61.43
2023-06-17T20:08:50.054Z,61.94
2023-06-17T20:23:53.084Z,62.98
2023-06-17T20:38:55.911Z,62.89
2023-06-17T20:53:58.366Z,63.64
2023-06-17T21:09:01.052Z,63.87
2023-06-17T21:24:04.081Z,64.23
2023-06-17T21:39:07.366Z,64.80
2023-06-17T21:54:10.971Z,65.23
2023-06-17T22:09:28.059Z,65.91
2023-06-17T22:24:30.522Z,66.24
2023-06-17T22:39:47.923Z,66.20
2023-06-17T22:54:50.814Z,66.00
2023-06-17T23:09:53.668Z,66.07
2023-06-17T23:24:59.080Z,66.40
2023-06-17T23:40:04.488Z,66.11
2023-06-17T23:55:07.376Z,66.46
